Forside
METAR-TAF:

METAR-TAF

Lufthavne :

Olieplatform

Troll C, Norge

Breddekreds: 60-53-09N, længdekreds: 3-36-35E, højde: 20 m

Aktuelle vejr

Denne rapport blev lavet for 3 timer og 50 minutter siden, kl. 23:20 UTC
Vind 11 kt fra vestnordvest
Temperatur 9°C
Fugtighed 81%
Tryk 1024 hPa
Sigt 10 km eller mere

METAR: ENQC 242320Z AUTO 30011KT 9999NDV OVC010/// 09/06 Q1024 W///S4

Tid: 05:10 (03:10 UTC)


TAF: fraværende

Vejrobservationer og prognoser fra mere end 4000 lufthavne (METAR og TAF).

De gule og røde prikker repræsenterer de meteorologiske stationer.

Flyt musen over at se navnet på stationen.

Så klik over at se vejr observationer og prognoser.

At skifte det kort: Klik på de grønne knapper med et sort kors for at zoome ind; på den grønne knap med en bindestreg for at zoome ud; eller på de grønne pile for tilstødende kort.


METAR-TAF: